Vonda, Canada
Current Conditions -  °F | °C
As of 10:00 PM on Saturday 20 Dec 2014 (Local Time) from CYXE Reporting Station
Haze Haze  
Wind Chill: 21°   Ceiling: 200
Heat Index: 21°   Visibility: 2mi
Dew Point: 21°   Wind: 3mph
Humidity: 100%   Direction: 180°S
Pressure: 29.63"   Gusts: NA
Location:  52.32°N, 106.1°W
Report Text: CYXE 210400Z 18003KT 2SM R09/5000VP6000FT/D BR OVC002 M06/M06 A2963 RMK FG2ST6 VIS W 3/4 SLP069
Loading
Personal Weather Stations






























Interactive Weather Map New forecast layout! Learn more

10-Day Weather Forecast

Advertisements
Track Severe Weather on mobile